createdAt,value
2017-12-23T00:01:37.971Z,38.95
2017-12-23T00:04:06.337Z,38.92
2017-12-23T00:06:35.478Z,37.63
2017-12-23T00:09:03.939Z,34.22
2017-12-23T00:11:32.306Z,35.33
2017-12-23T00:14:00.881Z,44.40
2017-12-23T00:18:57.712Z,40.15
2017-12-23T00:21:26.093Z,38.40
2017-12-23T00:23:54.457Z,39.05
2017-12-23T00:26:23.717Z,35.33
2017-12-23T00:28:52.091Z,42.28
2017-12-23T00:31:20.470Z,37.15
2017-12-23T00:33:48.859Z,40.88
2017-12-23T00:36:17.258Z,41.78
2017-12-23T00:38:45.814Z,41.50
2017-12-23T00:41:14.195Z,50.47
2017-12-23T00:43:42.564Z,42.03
2017-12-23T00:46:10.953Z,41.55
2017-12-23T00:48:39.318Z,39.90
2017-12-23T00:51:07.747Z,40.03
2017-12-23T00:53:36.121Z,43.13
2017-12-23T00:56:04.523Z,47.78
2017-12-23T00:58:33.682Z,42.72
2017-12-23T01:01:02.046Z,47.97
2017-12-23T01:03:30.443Z,47.55
2017-12-23T01:05:58.806Z,52.58
2017-12-23T01:08:27.182Z,64.85
2017-12-23T01:10:55.577Z,51.90
2017-12-23T01:13:24.842Z,48.95
2017-12-23T01:15:53.447Z,48.40
2017-12-23T01:18:21.811Z,51.53
2017-12-23T01:20:50.174Z,49.05
2017-12-23T01:23:19.442Z,58.20
2017-12-23T01:25:47.806Z,52.62
2017-12-23T01:28:16.226Z,49.80
2017-12-23T01:30:45.368Z,46.88
2017-12-23T01:33:13.763Z,50.40
2017-12-23T01:35:42.156Z,51.78
2017-12-23T01:38:10.533Z,50.08
2017-12-23T01:40:39.191Z,48.63
2017-12-23T01:43:07.559Z,58.42
2017-12-23T01:45:35.934Z,44.50
2017-12-23T01:48:04.322Z,57.53
2017-12-23T01:50:32.714Z,41.72
2017-12-23T01:53:01.281Z,48.13
2017-12-23T01:55:29.645Z,46.72
2017-12-23T01:57:58.014Z,47.17
2017-12-23T02:00:26.409Z,46.53
2017-12-23T02:02:54.770Z,53.08
2017-12-23T02:05:23.484Z,45.33
2017-12-23T02:07:51.842Z,45.38
2017-12-23T02:10:20.208Z,38.45
2017-12-23T02:12:49.370Z,41.97
2017-12-23T02:15:17.736Z,43.22
2017-12-23T02:17:46.151Z,42.42
2017-12-23T02:20:15.286Z,42.38
2017-12-23T02:22:43.646Z,39.08
2017-12-23T02:25:12.046Z,42.45
2017-12-23T02:27:40.410Z,44.67
2017-12-23T02:30:08.817Z,50.15
2017-12-23T02:32:37.186Z,52.38
2017-12-23T02:35:05.621Z,50.85
2017-12-23T02:37:33.978Z,52.03
2017-12-23T02:40:02.346Z,56.33
2017-12-23T02:42:30.754Z,64.43
2017-12-23T02:44:59.888Z,57.72
2017-12-23T02:47:28.244Z,57.08
2017-12-23T02:49:57.403Z,56.05
2017-12-23T02:52:25.771Z,56.50
2017-12-23T02:54:54.195Z,67.53
2017-12-23T02:57:23.318Z,57.62
2017-12-23T02:59:51.673Z,63.13
2017-12-23T03:02:20.061Z,62.88
2017-12-23T03:04:48.468Z,65.25
2017-12-23T03:07:16.874Z,66.10
2017-12-23T03:09:45.241Z,65.35
2017-12-23T03:12:13.608Z,67.47
2017-12-23T03:14:42.002Z,65.03
2017-12-23T03:17:10.378Z,69.93
2017-12-23T03:19:39.033Z,62.58
2017-12-23T03:22:07.394Z,75.87
2017-12-23T03:24:35.761Z,73.82
2017-12-23T03:27:04.924Z,69.28
2017-12-23T03:29:33.296Z,70.10
2017-12-23T03:32:01.939Z,62.62
2017-12-23T03:34:30.301Z,73.90
2017-12-23T03:36:58.666Z,65.75
2017-12-23T03:39:27.817Z,76.28
2017-12-23T03:41:56.181Z,70.05
2017-12-23T03:44:24.614Z,71.60
2017-12-23T03:46:53.782Z,74.10
2017-12-23T03:49:22.152Z,68.22
2017-12-23T03:51:50.578Z,61.40
2017-12-23T03:54:19.714Z,69.40
2017-12-23T03:56:48.286Z,62.80
2017-12-23T03:59:16.654Z,68.97
2017-12-23T04:01:45.021Z,58.15
2017-12-23T04:04:13.411Z,63.42
2017-12-23T04:06:41.775Z,65.57
2017-12-23T04:09:10.266Z,71.20
2017-12-23T04:11:38.632Z,63.35
2017-12-23T04:14:07.022Z,70.05
2017-12-23T04:16:35.409Z,81.07
2017-12-23T04:19:03.778Z,116.00
2017-12-23T04:21:32.574Z,118.15
2017-12-23T04:24:00.934Z,99.28
2017-12-23T04:26:29.303Z,88.12
2017-12-23T04:28:58.458Z,77.65
2017-12-23T04:31:26.822Z,72.00
2017-12-23T04:33:56.134Z,65.45
2017-12-23T04:36:24.498Z,67.80
2017-12-23T04:38:52.861Z,75.12
2017-12-23T04:41:21.267Z,66.78
2017-12-23T04:43:49.637Z,55.67
2017-12-23T04:46:18.088Z,47.58
2017-12-23T04:48:46.458Z,55.63
2017-12-23T04:51:14.827Z,56.80
2017-12-23T04:53:43.212Z,49.25
2017-12-23T04:56:11.577Z,54.83
2017-12-23T04:58:40.738Z,54.00
2017-12-23T05:01:09.094Z,47.42
2017-12-23T05:03:37.461Z,53.75
2017-12-23T05:06:05.855Z,53.05
2017-12-23T05:08:34.217Z,56.78
2017-12-23T05:11:02.898Z,57.90
2017-12-23T05:13:31.262Z,46.85
2017-12-23T05:15:59.622Z,57.03
2017-12-23T05:18:28.781Z,52.78
2017-12-23T05:20:57.148Z,52.62
2017-12-23T05:23:25.813Z,60.38
2017-12-23T05:25:54.175Z,58.25
2017-12-23T05:28:22.535Z,52.00
2017-12-23T05:30:51.694Z,46.88
2017-12-23T05:33:20.063Z,52.20
2017-12-23T05:35:48.470Z,46.83
2017-12-23T05:38:16.834Z,58.65
2017-12-23T05:40:45.198Z,50.45
2017-12-23T05:43:13.589Z,67.40
2017-12-23T05:45:41.960Z,54.53
2017-12-23T05:48:10.515Z,50.78
2017-12-23T05:50:38.882Z,58.90
2017-12-23T05:53:07.249Z,55.12
2017-12-23T05:55:35.639Z,56.83
2017-12-23T05:58:04.069Z,63.78
2017-12-23T06:00:32.465Z,55.95
2017-12-23T06:03:01.595Z,51.60
2017-12-23T06:05:29.954Z,55.30
2017-12-23T06:07:58.342Z,56.65
2017-12-23T06:10:26.708Z,61.03
2017-12-23T06:12:55.531Z,55.65
2017-12-23T06:15:23.898Z,55.00
2017-12-23T06:17:52.277Z,60.20
2017-12-23T06:20:20.670Z,60.47
2017-12-23T06:22:49.148Z,60.42
2017-12-23T06:25:17.938Z,59.55
2017-12-23T06:27:46.316Z,60.95
2017-12-23T06:30:14.686Z,58.15
2017-12-23T06:32:43.070Z,66.28
2017-12-23T06:35:11.438Z,65.62
2017-12-23T06:37:40.027Z,55.10
2017-12-23T06:40:08.395Z,62.13
2017-12-23T06:42:36.757Z,62.92
2017-12-23T06:45:05.142Z,70.68
2017-12-23T06:47:33.497Z,66.97
2017-12-23T06:50:02.858Z,60.80
2017-12-23T06:52:31.226Z,60.58
2017-12-23T06:54:59.588Z,70.45
2017-12-23T06:57:27.992Z,66.90
2017-12-23T06:59:56.362Z,63.92
2017-12-23T07:02:24.864Z,52.17
2017-12-23T07:04:53.226Z,53.63
2017-12-23T07:07:22.353Z,56.65
2017-12-23T07:09:50.738Z,63.45
2017-12-23T07:12:19.890Z,64.65
2017-12-23T07:14:49.446Z,62.35
2017-12-23T07:17:18.580Z,55.90
2017-12-23T07:19:46.943Z,64.03
2017-12-23T07:22:15.336Z,59.10
2017-12-23T07:24:43.698Z,64.10
2017-12-23T07:27:12.062Z,58.28
2017-12-23T07:29:41.219Z,62.78
2017-12-23T07:32:09.580Z,57.08
2017-12-23T07:34:38.072Z,57.05
2017-12-23T07:37:06.448Z,57.85
2017-12-23T07:39:34.815Z,65.45
2017-12-23T07:42:04.142Z,65.60
2017-12-23T07:44:32.513Z,60.90
2017-12-23T07:47:01.073Z,60.58
2017-12-23T07:49:29.459Z,57.78
2017-12-23T07:51:57.824Z,56.20
2017-12-23T07:54:26.245Z,67.20
2017-12-23T07:56:54.616Z,53.87
2017-12-23T07:59:23.030Z,55.47
2017-12-23T08:01:52.165Z,58.90
2017-12-23T08:04:20.534Z,61.33
2017-12-23T08:06:48.925Z,56.67
2017-12-23T08:09:17.298Z,52.55
2017-12-23T08:11:45.714Z,55.12
2017-12-23T08:14:14.083Z,58.95
2017-12-23T08:16:42.447Z,58.53
2017-12-23T08:19:10.847Z,58.35
2017-12-23T08:21:39.211Z,57.88
2017-12-23T08:24:07.686Z,54.65
2017-12-23T08:26:36.047Z,51.50
2017-12-23T08:29:04.410Z,53.35
2017-12-23T08:31:32.803Z,53.28
2017-12-23T08:34:01.176Z,50.05
2017-12-23T08:36:29.699Z,49.72
2017-12-23T08:38:58.069Z,52.78
2017-12-23T08:41:26.443Z,51.55
2017-12-23T08:43:54.854Z,45.50
2017-12-23T08:46:23.222Z,48.67
2017-12-23T08:48:51.714Z,58.47
2017-12-23T08:51:20.081Z,46.85
2017-12-23T08:53:48.450Z,52.97
2017-12-23T08:56:16.867Z,51.13
2017-12-23T08:58:46.000Z,52.50
2017-12-23T09:01:14.523Z,54.85
2017-12-23T09:03:42.889Z,62.58
2017-12-23T09:06:12.063Z,50.05
2017-12-23T09:08:40.461Z,48.17
2017-12-23T09:11:09.642Z,53.08
2017-12-23T09:13:38.066Z,46.85
2017-12-23T09:16:07.202Z,42.62
2017-12-23T09:18:35.569Z,42.65
2017-12-23T09:21:03.954Z,46.33
2017-12-23T09:23:32.452Z,46.35
2017-12-23T09:26:00.965Z,44.05
2017-12-23T09:28:29.334Z,37.10
2017-12-23T09:30:57.741Z,37.65
2017-12-23T09:33:26.907Z,42.22
2017-12-23T09:35:55.272Z,39.63
2017-12-23T09:38:25.470Z,41.40
2017-12-23T09:40:53.836Z,38.75
2017-12-23T09:43:22.214Z,41.28
2017-12-23T09:45:50.613Z,44.95
2017-12-23T09:48:19.017Z,39.45
2017-12-23T09:50:47.454Z,39.25
2017-12-23T09:53:15.821Z,39.67
2017-12-23T09:55:44.193Z,42.83
2017-12-23T09:58:13.376Z,39.38
2017-12-23T10:00:41.746Z,37.13
2017-12-23T10:03:10.246Z,37.95
2017-12-23T10:05:39.396Z,35.22
2017-12-23T10:08:07.771Z,37.65
2017-12-23T10:10:36.165Z,39.63
2017-12-23T10:13:05.262Z,35.03
2017-12-23T10:15:33.699Z,35.33
2017-12-23T10:18:02.111Z,35.03
2017-12-23T10:20:30.483Z,30.50
2017-12-23T10:22:58.881Z,34.88
2017-12-23T10:25:27.277Z,37.55
2017-12-23T10:27:56.006Z,36.40
2017-12-23T10:30:24.379Z,35.22
2017-12-23T10:32:52.738Z,32.15
2017-12-23T10:35:21.894Z,32.63
2017-12-23T10:37:50.258Z,28.33
2017-12-23T10:40:18.753Z,27.70
2017-12-23T10:42:47.143Z,28.70
2017-12-23T10:45:15.517Z,28.65
2017-12-23T10:47:43.931Z,26.27
2017-12-23T10:50:13.059Z,27.17
2017-12-23T10:52:41.748Z,23.73
2017-12-23T10:55:10.118Z,24.83
2017-12-23T10:57:38.493Z,23.65
2017-12-23T11:00:06.894Z,20.40
2017-12-23T11:02:35.263Z,25.98
2017-12-23T11:05:03.787Z,20.60
2017-12-23T11:07:32.164Z,20.35
2017-12-23T11:10:00.539Z,23.25
2017-12-23T11:12:28.931Z,24.55
2017-12-23T11:14:58.061Z,23.40
2017-12-23T11:17:26.467Z,16.42
2017-12-23T11:19:54.840Z,21.85
2017-12-23T11:22:23.218Z,22.08
2017-12-23T11:24:51.660Z,16.58
2017-12-23T11:27:20.798Z,17.37
2017-12-23T11:29:49.338Z,21.87
2017-12-23T11:32:17.714Z,13.10
2017-12-23T11:34:46.848Z,16.83
2017-12-23T11:37:15.251Z,15.77
2017-12-23T11:39:43.638Z,15.73
2017-12-23T11:42:12.071Z,16.92
2017-12-23T11:44:40.465Z,15.45
2017-12-23T11:47:08.840Z,16.98
2017-12-23T11:49:37.269Z,14.13
2017-12-23T11:52:06.420Z,17.15
2017-12-23T11:54:35.112Z,15.35
2017-12-23T11:57:03.535Z,16.27
2017-12-23T11:59:32.679Z,15.93
2017-12-23T12:02:01.075Z,13.32
2017-12-23T12:04:29.548Z,17.27
2017-12-23T12:06:58.380Z,11.85
2017-12-23T12:09:27.519Z,11.00
2017-12-23T12:11:55.883Z,13.15
2017-12-23T12:14:24.285Z,10.98
2017-12-23T12:16:52.701Z,13.95
2017-12-23T12:19:21.125Z,10.43
2017-12-23T12:21:49.569Z,12.05
2017-12-23T12:24:17.997Z,11.45
2017-12-23T12:26:46.438Z,13.10
2017-12-23T12:29:14.842Z,11.07
2017-12-23T12:31:43.487Z,11.35
2017-12-23T12:34:11.884Z,14.98
2017-12-23T12:36:41.062Z,10.82
2017-12-23T12:39:09.467Z,11.60
2017-12-23T12:41:37.848Z,13.30
2017-12-23T12:44:06.340Z,10.23
2017-12-23T12:46:34.723Z,10.45
2017-12-23T12:49:03.130Z,10.05
2017-12-23T12:51:31.534Z,14.35
2017-12-23T12:53:59.915Z,9.45
2017-12-23T12:56:28.550Z,10.90
2017-12-23T12:58:56.918Z,10.02
2017-12-23T13:01:25.284Z,9.93
2017-12-23T13:03:53.679Z,10.50
2017-12-23T13:06:22.059Z,11.88
2017-12-23T13:08:50.554Z,10.05
2017-12-23T13:11:18.968Z,13.60
2017-12-23T13:13:47.442Z,11.70
2017-12-23T13:16:15.836Z,7.90
2017-12-23T13:18:44.987Z,7.60
2017-12-23T13:21:13.671Z,9.70
2017-12-23T13:23:42.057Z,7.35
2017-12-23T13:26:10.488Z,6.15
2017-12-23T13:28:38.887Z,6.45
2017-12-23T13:31:07.266Z,7.10
2017-12-23T13:33:35.778Z,9.98
2017-12-23T13:38:38.881Z,6.28
2017-12-23T13:41:07.268Z,7.22
2017-12-23T13:43:35.646Z,11.02
2017-12-23T13:46:04.097Z,9.50
2017-12-23T13:48:32.462Z,9.55
2017-12-23T13:51:01.264Z,7.12
2017-12-23T13:53:29.634Z,7.05
2017-12-23T13:55:57.998Z,7.35
2017-12-23T13:58:26.387Z,8.95
2017-12-23T14:00:54.785Z,7.47
2017-12-23T14:03:23.299Z,10.52
2017-12-23T14:05:51.668Z,7.85
2017-12-23T14:08:20.562Z,9.38
2017-12-23T14:10:49.101Z,7.50
2017-12-23T14:13:17.495Z,8.60
2017-12-23T14:15:46.072Z,8.30
2017-12-23T14:18:14.435Z,9.38
2017-12-23T14:20:42.792Z,8.15
2017-12-23T14:23:11.961Z,8.07
2017-12-23T14:25:40.324Z,8.70
2017-12-23T14:28:08.810Z,9.00
2017-12-23T14:30:37.172Z,12.40
2017-12-23T14:33:05.540Z,10.75
2017-12-23T14:35:34.033Z,11.07
2017-12-23T14:38:02.519Z,10.02
2017-12-23T14:40:31.170Z,11.43
2017-12-23T14:42:59.577Z,14.43
2017-12-23T14:45:28.075Z,8.05
2017-12-23T14:47:56.573Z,10.30
2017-12-23T14:50:24.941Z,11.25
2017-12-23T14:52:53.317Z,9.63
2017-12-23T14:55:21.777Z,9.07
2017-12-23T14:57:50.140Z,18.17
2017-12-23T15:00:18.509Z,8.80
2017-12-23T15:02:46.897Z,9.02
2017-12-23T15:05:15.257Z,10.52
2017-12-23T15:07:43.656Z,11.23
2017-12-23T15:10:12.065Z,10.90
2017-12-23T15:12:40.445Z,12.30
2017-12-23T15:15:08.838Z,11.80
2017-12-23T15:17:37.213Z,13.62
2017-12-23T15:20:05.624Z,13.95
2017-12-23T15:22:34.798Z,13.77
2017-12-23T15:25:03.247Z,16.80
2017-12-23T15:27:31.637Z,12.35
2017-12-23T15:30:00.017Z,14.73
2017-12-23T15:32:28.722Z,10.52
2017-12-23T15:34:57.212Z,14.43
2017-12-23T15:37:25.850Z,16.17
2017-12-23T15:39:55.056Z,13.55
2017-12-23T15:42:23.418Z,10.68
2017-12-23T15:44:52.089Z,13.80
2017-12-23T15:47:20.480Z,17.37
2017-12-23T15:49:48.898Z,14.50
2017-12-23T15:52:17.339Z,12.95
2017-12-23T15:54:45.704Z,13.62
2017-12-23T15:57:14.198Z,12.23
2017-12-23T15:59:42.571Z,13.02
2017-12-23T16:02:10.941Z,9.98
2017-12-23T16:04:39.331Z,19.65
2017-12-23T16:07:07.710Z,10.90
2017-12-23T16:09:36.145Z,20.10
2017-12-23T16:12:05.278Z,12.80
2017-12-23T16:14:33.662Z,12.45
2017-12-23T16:17:02.051Z,14.35
2017-12-23T16:19:30.443Z,12.25
2017-12-23T16:21:59.101Z,9.68
2017-12-23T16:24:27.465Z,12.20
2017-12-23T16:26:55.874Z,11.00
2017-12-23T16:29:24.275Z,11.10
2017-12-23T16:31:53.446Z,12.25
2017-12-23T16:34:22.001Z,19.15
2017-12-23T16:36:50.455Z,13.73
2017-12-23T16:39:19.585Z,12.02
2017-12-23T16:41:48.134Z,11.27
2017-12-23T16:44:16.658Z,11.07
2017-12-23T16:46:45.118Z,9.45
2017-12-23T16:49:13.482Z,12.25
2017-12-23T16:51:42.910Z,12.13
2017-12-23T16:54:11.305Z,8.70
2017-12-23T16:56:39.670Z,11.57
2017-12-23T16:59:08.110Z,12.40
2017-12-23T17:01:37.240Z,13.60
2017-12-23T17:04:05.702Z,10.98
2017-12-23T17:06:35.260Z,10.13
2017-12-23T17:09:04.710Z,11.27
2017-12-23T17:11:33.589Z,10.80
2017-12-23T17:14:03.124Z,10.85
2017-12-23T17:16:31.778Z,11.45
2017-12-23T17:19:00.454Z,24.42
2017-12-23T17:21:29.132Z,14.40
2017-12-23T17:23:57.842Z,15.70
2017-12-23T17:26:26.669Z,13.85
2017-12-23T17:29:13.448Z,15.70
2017-12-23T17:31:42.055Z,14.77
2017-12-23T17:34:10.668Z,14.43
2017-12-23T17:36:40.282Z,15.77
2017-12-23T17:39:09.676Z,13.68
2017-12-23T17:41:39.300Z,20.95
2017-12-23T17:44:07.751Z,15.48
2017-12-23T17:46:36.153Z,16.85
2017-12-23T17:49:04.583Z,17.83
2017-12-23T17:51:32.992Z,14.82
2017-12-23T17:54:02.296Z,15.50
2017-12-23T17:56:30.668Z,16.12
2017-12-23T17:58:59.037Z,17.42
2017-12-23T18:01:27.473Z,17.40
2017-12-23T18:03:56.631Z,14.65
2017-12-23T18:06:25.055Z,15.30
2017-12-23T18:08:54.595Z,18.73
2017-12-23T18:11:23.228Z,16.77
2017-12-23T18:13:53.760Z,17.85
2017-12-23T18:16:22.367Z,17.02
2017-12-23T18:18:51.603Z,18.15
2017-12-23T18:21:19.988Z,19.15
2017-12-23T18:23:49.116Z,20.83
2017-12-23T18:26:18.495Z,17.20
2017-12-23T18:28:46.852Z,18.50
2017-12-23T18:31:15.534Z,16.30
2017-12-23T18:33:43.905Z,18.62
2017-12-23T18:36:12.286Z,22.77
2017-12-23T18:38:40.691Z,18.45
2017-12-23T18:41:09.076Z,19.45
2017-12-23T18:43:37.737Z,19.52
2017-12-23T18:46:06.100Z,22.85
2017-12-23T18:48:34.497Z,16.92
2017-12-23T18:51:02.994Z,19.48
2017-12-23T18:53:31.362Z,19.55
2017-12-23T18:56:00.034Z,21.08
2017-12-23T18:58:28.409Z,23.20
2017-12-23T19:00:56.842Z,22.58
2017-12-23T19:03:25.237Z,23.00
2017-12-23T19:05:54.400Z,21.25
2017-12-23T19:08:23.154Z,22.42
2017-12-23T19:10:51.526Z,21.65
2017-12-23T19:13:19.923Z,22.42
2017-12-23T19:15:50.313Z,20.77
2017-12-23T19:18:18.712Z,24.42
2017-12-23T19:20:47.101Z,22.15
2017-12-23T19:23:15.507Z,24.30
2017-12-23T19:25:44.898Z,31.30
2017-12-23T19:28:13.280Z,25.02
2017-12-23T19:30:41.658Z,25.12
2017-12-23T19:33:11.016Z,24.95
2017-12-23T19:38:14.826Z,22.33
2017-12-23T19:40:44.206Z,23.45
2017-12-23T19:43:13.405Z,21.55
2017-12-23T19:45:41.802Z,24.23
2017-12-23T19:48:11.112Z,23.38
2017-12-23T19:50:40.708Z,24.33
2017-12-23T19:53:09.910Z,25.02
2017-12-23T19:55:38.346Z,24.40
2017-12-23T19:58:06.796Z,26.23
2017-12-23T20:00:35.175Z,28.02
2017-12-23T20:03:03.706Z,25.92
2017-12-23T20:05:33.275Z,26.05
2017-12-23T20:08:02.326Z,26.10
2017-12-23T20:10:31.738Z,26.62
2017-12-23T20:13:00.237Z,26.67
2017-12-23T20:15:29.340Z,23.73
2017-12-23T20:17:57.998Z,24.00
2017-12-23T20:20:26.563Z,20.33
2017-12-23T20:22:55.286Z,22.98
2017-12-23T20:25:23.891Z,23.08
2017-12-23T20:27:53.426Z,24.70
2017-12-23T20:30:22.873Z,19.77
2017-12-23T20:32:51.620Z,21.60
2017-12-23T20:35:20.392Z,20.40
2017-12-23T20:37:49.633Z,20.20
2017-12-23T20:40:18.411Z,20.10
2017-12-23T20:42:46.900Z,17.40
2017-12-23T20:45:16.426Z,17.23
2017-12-23T20:47:44.928Z,19.80
2017-12-23T20:50:13.875Z,16.20
2017-12-23T20:52:42.492Z,15.40
2017-12-23T20:55:10.987Z,18.10
2017-12-23T20:57:40.389Z,15.75
2017-12-23T21:00:09.075Z,17.85
2017-12-23T21:02:38.577Z,17.10
2017-12-23T21:05:07.576Z,17.10
2017-12-23T21:07:36.784Z,21.40
2017-12-23T21:10:05.219Z,14.20
2017-12-23T21:12:34.142Z,20.92
2017-12-23T21:15:03.431Z,16.20
2017-12-23T21:17:32.318Z,22.40
2017-12-23T21:20:00.961Z,21.08
2017-12-23T21:22:29.704Z,19.40
2017-12-23T21:24:58.449Z,16.87
2017-12-23T21:27:26.855Z,16.40
2017-12-23T21:29:55.835Z,23.92
2017-12-23T21:32:24.311Z,26.15
2017-12-23T21:34:52.962Z,15.63
2017-12-23T21:37:22.498Z,19.17
2017-12-23T21:39:50.915Z,15.55
2017-12-23T21:42:19.586Z,15.88
2017-12-23T21:44:48.284Z,18.85
2017-12-23T21:47:17.780Z,16.73
2017-12-23T21:49:46.484Z,16.92
2017-12-23T21:52:15.173Z,20.00
2017-12-23T21:54:44.546Z,19.48
2017-12-23T21:57:13.097Z,19.95
2017-12-23T21:59:41.860Z,16.87
2017-12-23T22:02:10.757Z,17.73
2017-12-23T22:04:39.435Z,23.25
2017-12-23T22:07:08.320Z,22.30
2017-12-23T22:09:36.778Z,20.15
2017-12-23T22:12:05.353Z,24.63
2017-12-23T22:14:33.861Z,21.05
2017-12-23T22:17:02.542Z,25.60
2017-12-23T22:19:31.605Z,25.60
2017-12-23T22:22:00.023Z,23.67
2017-12-23T22:24:28.626Z,20.65
2017-12-23T22:26:57.115Z,23.23
2017-12-23T22:29:26.247Z,29.05
2017-12-23T22:31:54.688Z,34.88
2017-12-23T22:34:23.945Z,24.20
2017-12-23T22:36:52.382Z,37.08
2017-12-23T22:39:20.990Z,29.52
2017-12-23T22:41:49.467Z,28.38
2017-12-23T22:44:18.175Z,29.73
2017-12-23T22:46:46.699Z,31.83
2017-12-23T22:49:15.916Z,27.87
2017-12-23T22:51:44.386Z,22.70
2017-12-23T22:54:12.904Z,24.35
2017-12-23T22:56:41.302Z,27.87
2017-12-23T22:59:09.731Z,33.75
2017-12-23T23:01:38.180Z,25.25
2017-12-23T23:04:06.645Z,26.80
2017-12-23T23:06:35.018Z,29.58
2017-12-23T23:09:03.530Z,21.55
2017-12-23T23:11:32.660Z,21.27
2017-12-23T23:14:01.212Z,28.58
2017-12-23T23:16:30.399Z,20.67
2017-12-23T23:18:58.862Z,20.95
2017-12-23T23:21:28.213Z,20.25
2017-12-23T23:23:56.667Z,23.35
2017-12-23T23:26:25.801Z,22.45
2017-12-23T23:28:54.284Z,23.80
2017-12-23T23:31:23.066Z,20.08
2017-12-23T23:33:51.800Z,21.83
2017-12-23T23:36:20.971Z,24.65
2017-12-23T23:38:49.762Z,25.95
2017-12-23T23:41:19.209Z,25.83
2017-12-23T23:43:48.601Z,21.60
2017-12-23T23:46:17.079Z,22.73
2017-12-23T23:48:45.729Z,23.70
2017-12-23T23:51:14.107Z,22.95
2017-12-23T23:53:42.505Z,27.27
2017-12-23T23:56:12.398Z,23.85
2017-12-23T23:58:40.967Z,32.75
